sensor_id;sensor_type;location;lat;lon;timestamp;P1;durP1;ratioP1;P2;durP2;ratioP2
20729;SDS011;10526;50.850;12.928;2023-04-10T00:01:46;18.95;;;8.23;;
20729;SDS011;10526;50.850;12.928;2023-04-10T00:06:08;22.67;;;8.88;;
20729;SDS011;10526;50.850;12.928;2023-04-10T00:10:30;21.65;;;9.50;;
20729;SDS011;10526;50.850;12.928;2023-04-10T00:14:53;22.88;;;8.40;;
20729;SDS011;10526;50.850;12.928;2023-04-10T00:19:15;21.70;;;9.90;;
20729;SDS011;10526;50.850;12.928;2023-04-10T00:23:37;21.48;;;9.20;;
20729;SDS011;10526;50.850;12.928;2023-04-10T00:28:00;23.00;;;9.57;;
20729;SDS011;10526;50.850;12.928;2023-04-10T00:32:22;17.13;;;7.50;;
20729;SDS011;10526;50.850;12.928;2023-04-10T00:36:44;19.13;;;7.65;;
20729;SDS011;10526;50.850;12.928;2023-04-10T00:41:09;21.02;;;8.77;;
20729;SDS011;10526;50.850;12.928;2023-04-10T00:45:32;20.20;;;9.73;;
20729;SDS011;10526;50.850;12.928;2023-04-10T00:49:54;24.85;;;10.85;;
20729;SDS011;10526;50.850;12.928;2023-04-10T00:54:16;22.02;;;9.15;;
20729;SDS011;10526;50.850;12.928;2023-04-10T00:58:38;23.25;;;9.90;;
20729;SDS011;10526;50.850;12.928;2023-04-10T01:03:01;22.73;;;8.38;;
20729;SDS011;10526;50.850;12.928;2023-04-10T01:07:31;20.67;;;9.73;;
20729;SDS011;10526;50.850;12.928;2023-04-10T01:17:19;16.90;;;7.70;;
20729;SDS011;10526;50.850;12.928;2023-04-10T01:22:05;19.10;;;8.70;;
20729;SDS011;10526;50.850;12.928;2023-04-10T01:36:11;19.50;;;9.07;;
20729;SDS011;10526;50.850;12.928;2023-04-10T01:40:38;19.65;;;7.40;;
20729;SDS011;10526;50.850;12.928;2023-04-10T01:45:13;16.63;;;7.78;;
20729;SDS011;10526;50.850;12.928;2023-04-10T01:49:45;18.85;;;9.55;;
20729;SDS011;10526;50.850;12.928;2023-04-10T01:54:09;20.13;;;8.77;;
20729;SDS011;10526;50.850;12.928;2023-04-10T01:58:33;18.02;;;8.73;;
20729;SDS011;10526;50.850;12.928;2023-04-10T02:02:57;20.00;;;7.65;;
20729;SDS011;10526;50.850;12.928;2023-04-10T02:12:12;18.30;;;7.55;;
20729;SDS011;10526;50.850;12.928;2023-04-10T02:16:42;21.58;;;8.73;;
20729;SDS011;10526;50.850;12.928;2023-04-10T02:21:05;17.80;;;7.90;;
20729;SDS011;10526;50.850;12.928;2023-04-10T02:25:31;17.70;;;8.60;;
20729;SDS011;10526;50.850;12.928;2023-04-10T02:29:54;21.50;;;8.82;;
20729;SDS011;10526;50.850;12.928;2023-04-10T02:34:17;22.55;;;8.50;;
20729;SDS011;10526;50.850;12.928;2023-04-10T02:38:39;16.67;;;7.15;;
20729;SDS011;10526;50.850;12.928;2023-04-10T02:43:03;16.90;;;8.65;;
20729;SDS011;10526;50.850;12.928;2023-04-10T02:47:25;19.08;;;7.95;;
20729;SDS011;10526;50.850;12.928;2023-04-10T02:51:48;18.88;;;8.65;;
20729;SDS011;10526;50.850;12.928;2023-04-10T02:56:10;19.77;;;8.02;;
20729;SDS011;10526;50.850;12.928;2023-04-10T03:00:32;19.17;;;7.65;;
20729;SDS011;10526;50.850;12.928;2023-04-10T03:05:05;20.83;;;8.23;;
20729;SDS011;10526;50.850;12.928;2023-04-10T03:09:29;17.23;;;7.03;;
20729;SDS011;10526;50.850;12.928;2023-04-10T03:13:51;14.68;;;7.40;;
20729;SDS011;10526;50.850;12.928;2023-04-10T03:18:14;17.85;;;7.00;;
20729;SDS011;10526;50.850;12.928;2023-04-10T03:22:38;20.00;;;8.48;;
20729;SDS011;10526;50.850;12.928;2023-04-10T03:27:02;17.25;;;7.82;;
20729;SDS011;10526;50.850;12.928;2023-04-10T03:31:25;16.00;;;7.05;;
20729;SDS011;10526;50.850;12.928;2023-04-10T03:35:51;17.27;;;8.48;;
20729;SDS011;10526;50.850;12.928;2023-04-10T03:40:14;15.05;;;6.88;;
20729;SDS011;10526;50.850;12.928;2023-04-10T03:44:36;27.58;;;12.75;;
20729;SDS011;10526;50.850;12.928;2023-04-10T03:48:59;18.63;;;7.95;;
20729;SDS011;10526;50.850;12.928;2023-04-10T03:53:23;18.80;;;8.25;;
20729;SDS011;10526;50.850;12.928;2023-04-10T03:57:47;16.83;;;7.18;;
20729;SDS011;10526;50.850;12.928;2023-04-10T04:02:11;19.40;;;7.10;;
20729;SDS011;10526;50.850;12.928;2023-04-10T04:06:35;15.90;;;8.25;;
20729;SDS011;10526;50.850;12.928;2023-04-10T04:11:17;16.23;;;6.93;;
20729;SDS011;10526;50.850;12.928;2023-04-10T04:15:55;18.25;;;7.55;;
20729;SDS011;10526;50.850;12.928;2023-04-10T04:20:40;19.92;;;8.43;;
20729;SDS011;10526;50.850;12.928;2023-04-10T04:25:07;18.65;;;7.65;;
20729;SDS011;10526;50.850;12.928;2023-04-10T04:30:07;18.13;;;8.15;;
20729;SDS011;10526;50.850;12.928;2023-04-10T04:34:49;17.40;;;7.63;;
20729;SDS011;10526;50.850;12.928;2023-04-10T04:39:37;15.95;;;6.70;;
20729;SDS011;10526;50.850;12.928;2023-04-10T04:44:00;20.42;;;7.70;;
20729;SDS011;10526;50.850;12.928;2023-04-10T04:48:45;21.80;;;8.38;;
20729;SDS011;10526;50.850;12.928;2023-04-10T04:53:17;21.58;;;8.65;;
20729;SDS011;10526;50.850;12.928;2023-04-10T04:57:59;26.40;;;10.40;;
20729;SDS011;10526;50.850;12.928;2023-04-10T05:02:41;19.60;;;9.30;;
20729;SDS011;10526;50.850;12.928;2023-04-10T05:07:24;22.45;;;9.98;;
20729;SDS011;10526;50.850;12.928;2023-04-10T05:12:08;22.88;;;9.00;;
20729;SDS011;10526;50.850;12.928;2023-04-10T05:16:52;21.30;;;9.40;;
20729;SDS011;10526;50.850;12.928;2023-04-10T05:21:36;19.08;;;8.77;;
20729;SDS011;10526;50.850;12.928;2023-04-10T05:26:17;27.00;;;10.45;;
20729;SDS011;10526;50.850;12.928;2023-04-10T05:31:01;29.58;;;13.85;;
20729;SDS011;10526;50.850;12.928;2023-04-10T05:35:58;32.58;;;16.08;;
20729;SDS011;10526;50.850;12.928;2023-04-10T05:40:46;40.90;;;17.75;;
20729;SDS011;10526;50.850;12.928;2023-04-10T05:45:30;31.85;;;15.20;;
20729;SDS011;10526;50.850;12.928;2023-04-10T05:49:55;33.47;;;15.10;;
20729;SDS011;10526;50.850;12.928;2023-04-10T05:54:35;26.10;;;15.90;;
20729;SDS011;10526;50.850;12.928;2023-04-10T05:59:17;21.45;;;10.45;;
20729;SDS011;10526;50.850;12.928;2023-04-10T06:03:51;22.90;;;13.90;;
20729;SDS011;10526;50.850;12.928;2023-04-10T06:08:14;24.90;;;13.43;;
20729;SDS011;10526;50.850;12.928;2023-04-10T06:12:37;21.15;;;13.52;;
20729;SDS011;10526;50.850;12.928;2023-04-10T06:17:01;20.33;;;12.85;;
20729;SDS011;10526;50.850;12.928;2023-04-10T06:21:23;20.20;;;12.80;;
20729;SDS011;10526;50.850;12.928;2023-04-10T06:25:46;20.00;;;12.68;;
20729;SDS011;10526;50.850;12.928;2023-04-10T06:30:08;20.60;;;12.27;;
20729;SDS011;10526;50.850;12.928;2023-04-10T06:34:31;20.60;;;12.52;;
20729;SDS011;10526;50.850;12.928;2023-04-10T06:38:57;20.80;;;12.52;;
20729;SDS011;10526;50.850;12.928;2023-04-10T06:43:19;20.00;;;12.45;;
20729;SDS011;10526;50.850;12.928;2023-04-10T06:47:42;19.23;;;12.73;;
20729;SDS011;10526;50.850;12.928;2023-04-10T06:52:04;18.08;;;12.10;;
20729;SDS011;10526;50.850;12.928;2023-04-10T06:56:27;18.88;;;13.00;;
20729;SDS011;10526;50.850;12.928;2023-04-10T07:00:49;18.08;;;12.40;;
20729;SDS011;10526;50.850;12.928;2023-04-10T07:05:11;19.13;;;12.65;;
20729;SDS011;10526;50.850;12.928;2023-04-10T07:09:34;17.02;;;11.93;;
20729;SDS011;10526;50.850;12.928;2023-04-10T07:13:56;20.15;;;11.65;;
20729;SDS011;10526;50.850;12.928;2023-04-10T07:18:18;18.38;;;12.18;;
20729;SDS011;10526;50.850;12.928;2023-04-10T07:22:40;16.67;;;11.82;;
20729;SDS011;10526;50.850;12.928;2023-04-10T07:27:02;17.77;;;12.07;;
20729;SDS011;10526;50.850;12.928;2023-04-10T07:31:25;18.92;;;13.10;;
20729;SDS011;10526;50.850;12.928;2023-04-10T07:35:47;16.65;;;11.15;;
20729;SDS011;10526;50.850;12.928;2023-04-10T07:40:10;18.48;;;12.70;;
20729;SDS011;10526;50.850;12.928;2023-04-10T07:44:32;16.90;;;11.55;;
20729;SDS011;10526;50.850;12.928;2023-04-10T07:48:54;17.83;;;12.05;;
20729;SDS011;10526;50.850;12.928;2023-04-10T07:53:16;17.23;;;12.00;;
20729;SDS011;10526;50.850;12.928;2023-04-10T07:57:38;17.05;;;11.32;;
20729;SDS011;10526;50.850;12.928;2023-04-10T08:02:02;16.00;;;10.95;;
20729;SDS011;10526;50.850;12.928;2023-04-10T08:06:25;17.30;;;11.80;;
20729;SDS011;10526;50.850;12.928;2023-04-10T08:10:47;16.75;;;11.10;;
20729;SDS011;10526;50.850;12.928;2023-04-10T08:15:09;16.60;;;11.50;;
20729;SDS011;10526;50.850;12.928;2023-04-10T08:19:31;17.67;;;10.63;;
20729;SDS011;10526;50.850;12.928;2023-04-10T08:23:55;14.35;;;9.45;;
20729;SDS011;10526;50.850;12.928;2023-04-10T08:28:22;14.02;;;8.90;;
20729;SDS011;10526;50.850;12.928;2023-04-10T08:32:44;15.70;;;9.75;;
20729;SDS011;10526;50.850;12.928;2023-04-10T08:37:07;16.67;;;9.32;;
20729;SDS011;10526;50.850;12.928;2023-04-10T08:41:32;18.13;;;8.93;;
20729;SDS011;10526;50.850;12.928;2023-04-10T08:45:54;15.35;;;9.48;;
20729;SDS011;10526;50.850;12.928;2023-04-10T08:50:16;16.70;;;8.90;;
20729;SDS011;10526;50.850;12.928;2023-04-10T08:54:39;15.57;;;8.75;;
20729;SDS011;10526;50.850;12.928;2023-04-10T08:59:04;15.68;;;9.13;;
20729;SDS011;10526;50.850;12.928;2023-04-10T09:03:27;14.40;;;9.45;;
20729;SDS011;10526;50.850;12.928;2023-04-10T09:07:50;15.40;;;8.82;;
20729;SDS011;10526;50.850;12.928;2023-04-10T09:12:12;15.77;;;8.13;;
20729;SDS011;10526;50.850;12.928;2023-04-10T09:16:35;12.35;;;7.10;;
20729;SDS011;10526;50.850;12.928;2023-04-10T09:21:05;13.20;;;6.38;;
20729;SDS011;10526;50.850;12.928;2023-04-10T09:25:32;11.00;;;5.68;;
20729;SDS011;10526;50.850;12.928;2023-04-10T09:29:59;13.13;;;7.20;;
20729;SDS011;10526;50.850;12.928;2023-04-10T09:34:22;13.50;;;7.60;;
20729;SDS011;10526;50.850;12.928;2023-04-10T09:38:44;14.48;;;7.97;;
20729;SDS011;10526;50.850;12.928;2023-04-10T09:43:19;16.10;;;8.13;;
20729;SDS011;10526;50.850;12.928;2023-04-10T09:48:00;14.43;;;8.63;;
20729;SDS011;10526;50.850;12.928;2023-04-10T09:52:33;15.82;;;8.30;;
20729;SDS011;10526;50.850;12.928;2023-04-10T09:56:59;14.23;;;7.95;;
20729;SDS011;10526;50.850;12.928;2023-04-10T10:01:21;15.10;;;8.10;;
20729;SDS011;10526;50.850;12.928;2023-04-10T10:05:46;14.75;;;8.30;;
20729;SDS011;10526;50.850;12.928;2023-04-10T10:10:10;14.00;;;8.48;;
20729;SDS011;10526;50.850;12.928;2023-04-10T10:14:33;14.32;;;7.82;;
20729;SDS011;10526;50.850;12.928;2023-04-10T10:23:41;14.43;;;6.68;;
20729;SDS011;10526;50.850;12.928;2023-04-10T10:28:04;12.45;;;6.10;;
20729;SDS011;10526;50.850;12.928;2023-04-10T10:32:27;10.57;;;5.82;;
20729;SDS011;10526;50.850;12.928;2023-04-10T10:36:51;10.60;;;5.63;;
20729;SDS011;10526;50.850;12.928;2023-04-10T10:41:26;12.80;;;6.63;;
20729;SDS011;10526;50.850;12.928;2023-04-10T10:46:01;11.32;;;6.20;;
20729;SDS011;10526;50.850;12.928;2023-04-10T10:50:49;12.45;;;5.88;;
20729;SDS011;10526;50.850;12.928;2023-04-10T11:09:05;13.13;;;6.22;;
20729;SDS011;10526;50.850;12.928;2023-04-10T11:13:27;11.32;;;5.65;;
20729;SDS011;10526;50.850;12.928;2023-04-10T11:17:50;9.50;;;4.60;;
20729;SDS011;10526;50.850;12.928;2023-04-10T11:22:14;10.70;;;4.90;;
20729;SDS011;10526;50.850;12.928;2023-04-10T11:26:37;9.02;;;4.25;;
20729;SDS011;10526;50.850;12.928;2023-04-10T11:31:21;8.13;;;4.00;;
20729;SDS011;10526;50.850;12.928;2023-04-10T11:35:44;10.15;;;4.90;;
20729;SDS011;10526;50.850;12.928;2023-04-10T11:40:07;9.27;;;4.28;;
20729;SDS011;10526;50.850;12.928;2023-04-10T11:44:30;10.32;;;4.97;;
20729;SDS011;10526;50.850;12.928;2023-04-10T11:49:01;8.57;;;3.90;;
20729;SDS011;10526;50.850;12.928;2023-04-10T11:53:24;9.18;;;4.35;;
20729;SDS011;10526;50.850;12.928;2023-04-10T11:57:47;11.15;;;4.88;;
20729;SDS011;10526;50.850;12.928;2023-04-10T12:02:10;13.68;;;4.80;;
20729;SDS011;10526;50.850;12.928;2023-04-10T12:06:35;10.10;;;4.50;;
20729;SDS011;10526;50.850;12.928;2023-04-10T12:10:58;10.10;;;4.72;;
20729;SDS011;10526;50.850;12.928;2023-04-10T12:15:25;12.13;;;5.28;;
20729;SDS011;10526;50.850;12.928;2023-04-10T12:19:51;10.80;;;4.82;;
20729;SDS011;10526;50.850;12.928;2023-04-10T12:24:19;16.08;;;5.82;;
20729;SDS011;10526;50.850;12.928;2023-04-10T12:29:09;12.30;;;6.13;;
20729;SDS011;10526;50.850;12.928;2023-04-10T12:33:31;11.00;;;4.53;;
20729;SDS011;10526;50.850;12.928;2023-04-10T12:37:53;10.18;;;5.25;;
20729;SDS011;10526;50.850;12.928;2023-04-10T12:42:16;9.43;;;4.20;;
20729;SDS011;10526;50.850;12.928;2023-04-10T12:46:41;9.38;;;4.28;;
20729;SDS011;10526;50.850;12.928;2023-04-10T12:51:04;10.70;;;4.25;;
20729;SDS011;10526;50.850;12.928;2023-04-10T12:55:27;8.85;;;4.35;;
20729;SDS011;10526;50.850;12.928;2023-04-10T12:59:49;10.25;;;5.15;;
20729;SDS011;10526;50.850;12.928;2023-04-10T13:04:11;10.48;;;4.60;;
20729;SDS011;10526;50.850;12.928;2023-04-10T13:08:34;9.75;;;4.28;;
20729;SDS011;10526;50.850;12.928;2023-04-10T13:12:56;11.18;;;5.07;;
20729;SDS011;10526;50.850;12.928;2023-04-10T13:17:19;9.95;;;4.55;;
20729;SDS011;10526;50.850;12.928;2023-04-10T13:21:42;9.77;;;4.30;;
20729;SDS011;10526;50.850;12.928;2023-04-10T13:26:04;9.15;;;4.30;;
20729;SDS011;10526;50.850;12.928;2023-04-10T13:30:27;11.07;;;5.30;;
20729;SDS011;10526;50.850;12.928;2023-04-10T13:34:49;9.40;;;4.25;;
20729;SDS011;10526;50.850;12.928;2023-04-10T13:39:11;10.50;;;4.65;;
20729;SDS011;10526;50.850;12.928;2023-04-10T13:43:33;11.82;;;5.22;;
20729;SDS011;10526;50.850;12.928;2023-04-10T13:47:56;12.30;;;5.63;;
20729;SDS011;10526;50.850;12.928;2023-04-10T13:52:19;10.88;;;5.10;;
20729;SDS011;10526;50.850;12.928;2023-04-10T13:56:41;10.93;;;5.25;;
20729;SDS011;10526;50.850;12.928;2023-04-10T14:01:04;11.20;;;5.05;;
20729;SDS011;10526;50.850;12.928;2023-04-10T14:05:27;10.77;;;4.72;;
20729;SDS011;10526;50.850;12.928;2023-04-10T14:09:49;12.27;;;5.63;;
20729;SDS011;10526;50.850;12.928;2023-04-10T14:14:11;11.25;;;5.25;;
20729;SDS011;10526;50.850;12.928;2023-04-10T14:18:33;10.52;;;4.55;;
20729;SDS011;10526;50.850;12.928;2023-04-10T14:22:57;10.85;;;5.25;;
20729;SDS011;10526;50.850;12.928;2023-04-10T14:27:19;10.18;;;5.15;;
20729;SDS011;10526;50.850;12.928;2023-04-10T14:31:41;11.82;;;5.00;;
20729;SDS011;10526;50.850;12.928;2023-04-10T14:36:17;11.23;;;4.90;;
20729;SDS011;10526;50.850;12.928;2023-04-10T14:40:39;9.63;;;4.53;;
20729;SDS011;10526;50.850;12.928;2023-04-10T14:45:02;12.02;;;5.38;;
20729;SDS011;10526;50.850;12.928;2023-04-10T14:49:26;11.30;;;5.32;;
20729;SDS011;10526;50.850;12.928;2023-04-10T14:53:48;10.95;;;5.03;;
20729;SDS011;10526;50.850;12.928;2023-04-10T14:58:10;11.43;;;4.93;;
20729;SDS011;10526;50.850;12.928;2023-04-10T15:02:32;12.15;;;5.45;;
20729;SDS011;10526;50.850;12.928;2023-04-10T15:06:55;11.50;;;5.13;;
20729;SDS011;10526;50.850;12.928;2023-04-10T15:11:17;11.02;;;5.35;;
20729;SDS011;10526;50.850;12.928;2023-04-10T15:15:39;9.90;;;4.88;;
20729;SDS011;10526;50.850;12.928;2023-04-10T15:20:01;11.95;;;5.10;;
20729;SDS011;10526;50.850;12.928;2023-04-10T15:24:25;7.50;;;3.45;;
20729;SDS011;10526;50.850;12.928;2023-04-10T15:28:51;10.10;;;4.53;;
20729;SDS011;10526;50.850;12.928;2023-04-10T15:33:13;13.50;;;5.10;;
20729;SDS011;10526;50.850;12.928;2023-04-10T15:37:36;10.55;;;5.13;;
20729;SDS011;10526;50.850;12.928;2023-04-10T15:41:58;13.75;;;6.35;;
20729;SDS011;10526;50.850;12.928;2023-04-10T15:46:22;14.82;;;4.75;;
20729;SDS011;10526;50.850;12.928;2023-04-10T15:50:46;10.65;;;4.57;;
20729;SDS011;10526;50.850;12.928;2023-04-10T15:55:08;10.95;;;5.00;;
20729;SDS011;10526;50.850;12.928;2023-04-10T15:59:31;10.10;;;4.68;;
20729;SDS011;10526;50.850;12.928;2023-04-10T16:03:53;10.55;;;4.65;;
20729;SDS011;10526;50.850;12.928;2023-04-10T16:08:16;12.90;;;5.15;;
20729;SDS011;10526;50.850;12.928;2023-04-10T16:12:39;10.30;;;4.35;;
20729;SDS011;10526;50.850;12.928;2023-04-10T16:17:01;11.70;;;5.47;;
20729;SDS011;10526;50.850;12.928;2023-04-10T16:21:23;9.70;;;4.63;;
20729;SDS011;10526;50.850;12.928;2023-04-10T16:25:47;12.45;;;5.05;;
20729;SDS011;10526;50.850;12.928;2023-04-10T16:30:09;10.77;;;4.50;;
20729;SDS011;10526;50.850;12.928;2023-04-10T16:34:32;9.82;;;4.53;;
20729;SDS011;10526;50.850;12.928;2023-04-10T16:38:55;10.10;;;4.88;;
20729;SDS011;10526;50.850;12.928;2023-04-10T16:43:17;10.25;;;4.43;;
20729;SDS011;10526;50.850;12.928;2023-04-10T16:47:39;11.32;;;4.90;;
20729;SDS011;10526;50.850;12.928;2023-04-10T16:52:02;13.10;;;5.57;;
20729;SDS011;10526;50.850;12.928;2023-04-10T16:56:24;11.48;;;5.05;;
20729;SDS011;10526;50.850;12.928;2023-04-10T17:00:47;10.23;;;4.97;;
20729;SDS011;10526;50.850;12.928;2023-04-10T17:05:09;12.52;;;5.47;;
20729;SDS011;10526;50.850;12.928;2023-04-10T17:09:33;12.23;;;5.63;;
20729;SDS011;10526;50.850;12.928;2023-04-10T17:13:56;10.73;;;4.70;;
20729;SDS011;10526;50.850;12.928;2023-04-10T17:18:18;10.73;;;5.20;;
20729;SDS011;10526;50.850;12.928;2023-04-10T17:22:41;11.95;;;5.60;;
20729;SDS011;10526;50.850;12.928;2023-04-10T17:27:03;13.30;;;6.00;;
20729;SDS011;10526;50.850;12.928;2023-04-10T17:31:25;13.95;;;5.43;;
20729;SDS011;10526;50.850;12.928;2023-04-10T17:35:49;13.05;;;6.32;;
20729;SDS011;10526;50.850;12.928;2023-04-10T17:40:12;15.05;;;6.32;;
20729;SDS011;10526;50.850;12.928;2023-04-10T17:44:34;16.33;;;6.50;;
20729;SDS011;10526;50.850;12.928;2023-04-10T17:48:56;14.68;;;5.78;;
20729;SDS011;10526;50.850;12.928;2023-04-10T17:53:22;13.20;;;6.57;;
20729;SDS011;10526;50.850;12.928;2023-04-10T17:57:44;12.60;;;5.72;;
20729;SDS011;10526;50.850;12.928;2023-04-10T18:02:06;13.52;;;5.72;;
20729;SDS011;10526;50.850;12.928;2023-04-10T18:06:28;13.07;;;6.47;;
20729;SDS011;10526;50.850;12.928;2023-04-10T18:10:51;14.45;;;7.10;;
20729;SDS011;10526;50.850;12.928;2023-04-10T18:15:13;13.55;;;6.63;;
20729;SDS011;10526;50.850;12.928;2023-04-10T18:19:36;13.10;;;6.22;;
20729;SDS011;10526;50.850;12.928;2023-04-10T18:23:58;12.27;;;6.03;;
20729;SDS011;10526;50.850;12.928;2023-04-10T18:28:20;12.82;;;6.40;;
20729;SDS011;10526;50.850;12.928;2023-04-10T18:32:43;13.88;;;6.13;;
20729;SDS011;10526;50.850;12.928;2023-04-10T18:37:06;13.82;;;7.05;;
20729;SDS011;10526;50.850;12.928;2023-04-10T18:41:30;14.45;;;7.15;;
20729;SDS011;10526;50.850;12.928;2023-04-10T18:45:52;13.88;;;6.78;;
20729;SDS011;10526;50.850;12.928;2023-04-10T18:50:15;13.70;;;6.70;;
20729;SDS011;10526;50.850;12.928;2023-04-10T18:54:37;14.73;;;7.05;;
20729;SDS011;10526;50.850;12.928;2023-04-10T18:59:00;15.35;;;8.10;;
20729;SDS011;10526;50.850;12.928;2023-04-10T19:03:22;16.73;;;7.13;;
20729;SDS011;10526;50.850;12.928;2023-04-10T19:07:44;17.02;;;7.88;;
20729;SDS011;10526;50.850;12.928;2023-04-10T19:12:23;15.82;;;7.80;;
20729;SDS011;10526;50.850;12.928;2023-04-10T19:16:45;18.23;;;7.95;;
20729;SDS011;10526;50.850;12.928;2023-04-10T19:21:08;16.13;;;8.27;;
20729;SDS011;10526;50.850;12.928;2023-04-10T19:25:31;17.30;;;8.23;;
20729;SDS011;10526;50.850;12.928;2023-04-10T19:29:53;17.25;;;8.75;;
20729;SDS011;10526;50.850;12.928;2023-04-10T19:34:15;15.10;;;7.18;;
20729;SDS011;10526;50.850;12.928;2023-04-10T19:38:37;16.58;;;7.45;;
20729;SDS011;10526;50.850;12.928;2023-04-10T19:43:01;16.48;;;7.75;;
20729;SDS011;10526;50.850;12.928;2023-04-10T19:47:23;15.63;;;8.05;;
20729;SDS011;10526;50.850;12.928;2023-04-10T19:51:44;15.02;;;7.35;;
20729;SDS011;10526;50.850;12.928;2023-04-10T19:56:07;19.42;;;8.85;;
20729;SDS011;10526;50.850;12.928;2023-04-10T20:00:29;18.60;;;9.15;;
20729;SDS011;10526;50.850;12.928;2023-04-10T20:04:52;17.98;;;8.85;;
20729;SDS011;10526;50.850;12.928;2023-04-10T20:09:14;17.55;;;8.95;;
20729;SDS011;10526;50.850;12.928;2023-04-10T20:13:36;16.58;;;8.20;;
20729;SDS011;10526;50.850;12.928;2023-04-10T20:18:00;17.52;;;8.70;;
20729;SDS011;10526;50.850;12.928;2023-04-10T20:22:22;17.80;;;8.57;;
20729;SDS011;10526;50.850;12.928;2023-04-10T20:26:44;16.25;;;8.20;;
20729;SDS011;10526;50.850;12.928;2023-04-10T20:31:06;17.08;;;8.10;;
20729;SDS011;10526;50.850;12.928;2023-04-10T20:35:30;16.63;;;8.52;;
20729;SDS011;10526;50.850;12.928;2023-04-10T20:39:52;14.85;;;7.18;;
20729;SDS011;10526;50.850;12.928;2023-04-10T20:44:15;15.15;;;7.32;;
20729;SDS011;10526;50.850;12.928;2023-04-10T20:48:37;15.10;;;7.38;;
20729;SDS011;10526;50.850;12.928;2023-04-10T20:52:59;14.10;;;7.47;;
20729;SDS011;10526;50.850;12.928;2023-04-10T20:57:21;14.48;;;7.03;;
20729;SDS011;10526;50.850;12.928;2023-04-10T21:01:44;14.73;;;7.10;;
20729;SDS011;10526;50.850;12.928;2023-04-10T21:06:06;16.13;;;7.90;;
20729;SDS011;10526;50.850;12.928;2023-04-10T21:10:29;13.50;;;6.45;;
20729;SDS011;10526;50.850;12.928;2023-04-10T21:14:51;13.68;;;6.18;;
20729;SDS011;10526;50.850;12.928;2023-04-10T21:19:13;13.75;;;6.38;;
20729;SDS011;10526;50.850;12.928;2023-04-10T21:23:35;12.82;;;6.20;;
20729;SDS011;10526;50.850;12.928;2023-04-10T21:27:57;14.52;;;6.60;;
20729;SDS011;10526;50.850;12.928;2023-04-10T21:32:20;13.35;;;5.95;;
20729;SDS011;10526;50.850;12.928;2023-04-10T21:36:42;14.93;;;7.00;;
20729;SDS011;10526;50.850;12.928;2023-04-10T21:41:04;13.60;;;6.32;;
20729;SDS011;10526;50.850;12.928;2023-04-10T21:45:27;14.13;;;6.45;;
20729;SDS011;10526;50.850;12.928;2023-04-10T21:49:55;14.52;;;6.50;;
20729;SDS011;10526;50.850;12.928;2023-04-10T21:54:17;13.32;;;6.47;;
20729;SDS011;10526;50.850;12.928;2023-04-10T21:58:39;14.50;;;6.43;;
20729;SDS011;10526;50.850;12.928;2023-04-10T22:03:01;13.73;;;6.45;;
20729;SDS011;10526;50.850;12.928;2023-04-10T22:07:23;13.48;;;6.32;;
20729;SDS011;10526;50.850;12.928;2023-04-10T22:11:45;13.18;;;6.25;;
20729;SDS011;10526;50.850;12.928;2023-04-10T22:16:07;13.23;;;6.13;;
20729;SDS011;10526;50.850;12.928;2023-04-10T22:20:29;12.77;;;6.22;;
20729;SDS011;10526;50.850;12.928;2023-04-10T22:24:51;13.40;;;6.30;;
20729;SDS011;10526;50.850;12.928;2023-04-10T22:29:14;13.02;;;5.60;;
20729;SDS011;10526;50.850;12.928;2023-04-10T22:33:36;13.98;;;5.75;;
20729;SDS011;10526;50.850;12.928;2023-04-10T22:37:58;13.45;;;5.75;;
20729;SDS011;10526;50.850;12.928;2023-04-10T22:42:23;13.77;;;5.95;;
20729;SDS011;10526;50.850;12.928;2023-04-10T22:46:45;12.13;;;5.70;;
20729;SDS011;10526;50.850;12.928;2023-04-10T22:51:09;13.60;;;6.40;;
20729;SDS011;10526;50.850;12.928;2023-04-10T22:55:32;14.00;;;6.57;;
20729;SDS011;10526;50.850;12.928;2023-04-10T22:59:54;12.55;;;5.63;;
20729;SDS011;10526;50.850;12.928;2023-04-10T23:04:18;13.25;;;5.68;;
20729;SDS011;10526;50.850;12.928;2023-04-10T23:08:40;13.50;;;5.15;;
20729;SDS011;10526;50.850;12.928;2023-04-10T23:13:02;13.80;;;5.45;;
20729;SDS011;10526;50.850;12.928;2023-04-10T23:17:24;11.75;;;5.40;;
20729;SDS011;10526;50.850;12.928;2023-04-10T23:21:47;13.82;;;5.82;;
20729;SDS011;10526;50.850;12.928;2023-04-10T23:26:09;13.98;;;5.93;;
20729;SDS011;10526;50.850;12.928;2023-04-10T23:30:31;13.00;;;6.32;;
20729;SDS011;10526;50.850;12.928;2023-04-10T23:34:53;13.13;;;5.88;;
20729;SDS011;10526;50.850;12.928;2023-04-10T23:39:15;13.35;;;5.90;;
20729;SDS011;10526;50.850;12.928;2023-04-10T23:43:37;12.75;;;6.10;;
20729;SDS011;10526;50.850;12.928;2023-04-10T23:47:59;11.98;;;5.57;;
20729;SDS011;10526;50.850;12.928;2023-04-10T23:52:21;11.68;;;5.25;;
20729;SDS011;10526;50.850;12.928;2023-04-10T23:56:43;12.48;;;5.60;;
